Time;durP1;ratioP1;P1;durP2;ratioP2;P2;SDS_P1;SDS_P2;PMS_P1;PMS_P2;Temp;Humidity;BMP_temperature;BMP_pressure;BME280_temperature;BME280_humidity;BME280_pressure;Samples;Min_cycle;Max_cycle;Signal;HPM_P1;HPM_P2
2021/06/15 00:00:17;;;;;;;6.65;1.85;;;;;;;15.94;54.63;102020.81;4903822;29;20401;-80
2021/06/15 00:02:45;;;;;;;8.27;2.15;;;;;;;15.72;54.66;101994.44;4894489;29;20060;-80
2021/06/15 00:05:13;;;;;;;9.38;2.03;;;;;;;15.87;54.21;102014.06;4901179;29;20545;-80
2021/06/15 00:07:40;;;;;;;11.07;2.63;;;;;;;15.78;54.11;102023.16;4910758;29;20096;-80
2021/06/15 00:10:12;;;;;;;8.50;2.40;;;;;;;15.77;54.05;102026.72;4900966;29;20054;-81
2021/06/15 00:12:39;;;;;;;7.45;2.03;;;;;;;15.43;54.19;101978.00;4886001;29;20053;-80
2021/06/15 00:15:07;;;;;;;8.15;1.90;;;;;;;15.65;53.99;102013.09;4900488;29;20053;-81
2021/06/15 00:17:34;;;;;;;9.57;2.08;;;;;;;15.70;54.12;102023.47;4883914;29;20546;-80
2021/06/15 00:20:01;;;;;;;7.43;2.17;;;;;;;15.52;54.04;102001.34;4900767;29;20169;-80
2021/06/15 00:22:28;;;;;;;8.60;2.03;;;;;;;15.45;54.01;101995.47;4900066;29;20127;-80
2021/06/15 00:24:54;;;;;;;6.22;2.17;;;;;;;15.46;53.94;102020.84;4900685;29;20088;-80
2021/06/15 00:27:20;;;;;;;8.02;2.00;;;;;;;15.56;53.19;102008.19;4884528;29;20060;-79
2021/06/15 00:29:46;;;;;;;11.05;2.33;;;;;;;15.76;52.84;102011.81;4901685;29;20055;-81
2021/06/15 00:32:12;;;;;;;7.75;1.92;;;;;;;15.73;52.77;102004.06;4903374;29;20387;-81
2021/06/15 00:34:38;;;;;;;7.45;2.08;;;;;;;15.34;52.97;101948.50;4907707;29;20470;-79
2021/06/15 00:37:04;;;;;;;7.25;2.55;;;;;;;15.59;52.82;101994.94;4908578;29;20176;-83
2021/06/15 00:39:30;;;;;;;7.32;2.30;;;;;;;15.53;52.83;101982.00;4919764;29;20036;-80
2021/06/15 00:42:02;;;;;;;6.05;1.88;;;;;;;15.59;52.57;102002.81;4922099;29;20059;-83
2021/06/15 00:44:36;;;;;;;5.90;1.98;;;;;;;15.50;53.11;102005.78;4910817;29;20072;-83
2021/06/15 00:47:08;;;;;;;8.23;1.92;;;;;;;15.36;53.04;102001.91;4911599;29;20060;-82
2021/06/15 00:49:39;;;;;;;8.13;2.05;;;;;;;15.17;53.17;102000.88;4910404;29;20061;-82
2021/06/15 00:52:06;;;;;;;8.60;2.33;;;;;;;15.14;53.48;101993.13;4893662;29;20059;-81
2021/06/15 00:54:33;;;;;;;7.03;2.17;;;;;;;15.19;53.41;102010.41;4907130;29;20053;-82
2021/06/15 00:56:59;;;;;;;9.07;1.92;;;;;;;15.11;53.58;102014.25;4902559;29;20068;-83
2021/06/15 00:59:26;;;;;;;6.65;1.80;;;;;;;15.01;54.13;102016.34;4903292;29;20115;-82
2021/06/15 01:01:52;;;;;;;6.25;1.60;;;;;;;14.86;53.98;101987.06;4902412;29;20096;-83
2021/06/15 01:04:19;;;;;;;5.82;1.85;;;;;;;14.94;54.36;102014.84;4908049;29;20028;-81
2021/06/15 01:07:04;;;;;;;10.40;2.05;;;;;;;14.95;54.02;102008.69;4922826;29;20043;-80
2021/06/15 01:09:43;;;;;;;7.45;1.85;;;;;;;14.88;54.41;102026.47;4921919;29;20052;-82
2021/06/15 01:12:26;;;;;;;7.32;1.77;;;;;;;14.85;54.63;102018.66;4910866;29;20595;-83
2021/06/15 01:15:05;;;;;;;6.80;2.10;;;;;;;14.78;54.78;102023.28;4903328;29;20032;-82
2021/06/15 01:17:37;;;;;;;12.23;2.28;;;;;;;14.82;55.02;102022.25;4922204;29;20036;-82
2021/06/15 01:20:16;;;;;;;7.47;1.98;;;;;;;14.71;55.44;102027.03;4904247;29;20092;-81
2021/06/15 01:23:17;;;;;;;3.92;1.67;;;;;;;14.65;55.48;102017.59;4915874;29;20044;-80
2021/06/15 01:25:45;;;;;;;10.30;2.17;;;;;;;14.68;55.41;102025.38;4904431;29;20063;-83
2021/06/15 01:28:17;;;;;;;9.18;2.13;;;;;;;14.71;55.28;102022.63;4911484;29;20394;-81
2021/06/15 01:30:53;;;;;;;6.97;1.92;;;;;;;14.75;55.14;102012.03;4895056;29;20104;-80
2021/06/15 01:33:21;;;;;;;8.27;2.42;;;;;;;14.85;55.08;102023.94;4905421;29;20059;-81
2021/06/15 01:35:50;;;;;;;8.60;2.10;;;;;;;14.80;55.04;102024.09;4902876;29;20053;-83
2021/06/15 01:38:21;;;;;;;6.93;2.05;;;;;;;14.75;55.50;102025.16;4902201;29;20056;-82
2021/06/15 01:41:24;;;;;;;9.32;2.13;;;;;;;14.69;55.74;102023.59;4915756;29;20064;-82
2021/06/15 01:44:04;;;;;;;8.73;2.38;;;;;;;14.63;55.70;102023.78;4904525;29;20036;-80
2021/06/15 01:46:37;;;;;;;6.55;1.60;;;;;;;14.71;55.60;102017.38;4921638;29;20068;-81
2021/06/15 01:49:08;;;;;;;8.70;2.25;;;;;;;14.52;56.06;102006.59;4922145;29;20037;-81
2021/06/15 01:51:36;;;;;;;8.30;2.33;;;;;;;14.45;56.48;101994.56;4921824;29;20032;-81
2021/06/15 01:54:09;;;;;;;7.90;2.15;;;;;;;14.47;56.71;101997.16;4922070;29;20052;-81
2021/06/15 01:56:39;;;;;;;8.77;2.42;;;;;;;14.37;57.34;102004.50;4903053;29;20055;-82
2021/06/15 01:59:12;;;;;;;8.23;2.25;;;;;;;14.28;57.40;101997.78;4887068;29;20060;-83
2021/06/15 02:01:42;;;;;;;9.23;2.33;;;;;;;14.19;57.52;101984.94;4902449;29;20052;-83
2021/06/15 02:04:10;;;;;;;8.45;2.20;;;;;;;14.21;57.84;101988.41;4903062;29;20494;-82
2021/06/15 02:06:41;;;;;;;8.32;2.55;;;;;;;13.97;58.27;101959.38;4903066;29;20075;-83
2021/06/15 02:09:08;;;;;;;9.15;2.30;;;;;;;13.90;58.20;101940.38;4902258;29;20048;-83
2021/06/15 02:11:36;;;;;;;9.77;2.33;;;;;;;14.13;58.29;101986.00;4900740;29;20049;-83
2021/06/15 02:14:04;;;;;;;7.82;2.47;;;;;;;14.12;58.55;101976.41;4903033;29;20060;-81
2021/06/15 02:16:32;;;;;;;9.68;2.40;;;;;;;13.97;58.67;101976.91;4903258;29;20053;-83
2021/06/15 02:19:00;;;;;;;7.93;2.08;;;;;;;13.81;59.02;101961.63;4903180;29;20048;-81
2021/06/15 02:21:31;;;;;;;6.10;2.10;;;;;;;13.88;59.38;101984.16;4903212;29;20052;-83
2021/06/15 02:24:01;;;;;;;11.15;2.22;;;;;;;13.96;59.10;101986.53;4901903;29;20048;-82
2021/06/15 02:26:29;;;;;;;11.73;2.08;;;;;;;13.97;59.07;101976.91;4902594;29;20063;-82
2021/06/15 02:28:56;;;;;;;5.53;2.13;;;;;;;13.87;59.09;101965.84;4902436;29;20048;-83
2021/06/15 02:31:31;;;;;;;7.10;2.40;;;;;;;13.97;59.33;101987.41;4903010;29;20413;-82
2021/06/15 02:34:02;;;;;;;8.95;2.20;;;;;;;13.83;59.71;101977.34;4909922;29;20045;-83
2021/06/15 02:36:35;;;;;;;7.18;2.47;;;;;;;13.58;59.65;101931.72;4902640;29;20117;-82
2021/06/15 02:39:10;;;;;;;10.02;2.67;;;;;;;13.76;60.01;101960.94;4902167;29;20485;-82
2021/06/15 02:41:40;;;;;;;7.13;2.20;;;;;;;13.70;59.88;101954.09;4905463;29;20053;-82
2021/06/15 02:44:08;;;;;;;10.65;2.22;;;;;;;13.79;59.96;101975.72;4902416;29;20108;-83
2021/06/15 02:46:37;;;;;;;10.50;2.00;;;;;;;13.77;60.12;101975.78;4904472;29;20059;-82
2021/06/15 02:49:16;;;;;;;9.35;2.20;;;;;;;13.74;60.18;101976.72;4907105;29;20049;-82
2021/06/15 02:51:50;;;;;;;9.77;2.47;;;;;;;13.65;60.51;101976.16;4924200;29;20036;-81
2021/06/15 02:54:30;;;;;;;10.18;2.97;;;;;;;13.41;60.74;101950.59;4924764;29;20053;-80
2021/06/15 02:56:58;;;;;;;8.40;2.28;;;;;;;13.48;61.52;101977.50;4910713;29;20053;-83
2021/06/15 02:59:24;;;;;;;8.65;2.40;;;;;;;13.38;61.24;101966.44;4908833;29;20053;-83
2021/06/15 03:01:52;;;;;;;9.45;2.53;;;;;;;13.21;60.88;101929.34;4908941;29;20041;-82
2021/06/15 03:04:18;;;;;;;8.75;2.30;;;;;;;13.48;61.29;101977.50;4911047;29;20108;-82
2021/06/15 03:06:45;;;;;;;9.63;2.65;;;;;;;13.26;61.65;101953.66;4912832;29;20104;-82
2021/06/15 03:09:13;;;;;;;7.75;2.45;;;;;;;13.45;61.63;101974.97;4927507;29;20053;-82
2021/06/15 03:11:48;;;;;;;9.85;2.92;;;;;;;13.40;61.51;101967.25;4917890;29;20056;-82
2021/06/15 03:14:26;;;;;;;9.95;2.88;;;;;;;13.15;61.75;101938.25;4917364;29;20076;-82
2021/06/15 03:16:58;;;;;;;10.73;3.20;;;;;;;13.21;61.99;101952.94;4910485;29;20068;-81
2021/06/15 03:19:28;;;;;;;7.25;2.15;;;;;;;13.17;62.00;101935.56;4909678;29;20053;-82
2021/06/15 03:22:02;;;;;;;6.38;1.95;;;;;;;13.36;61.98;101968.19;4910555;29;20486;-82
2021/06/15 03:24:31;;;;;;;9.50;2.80;;;;;;;13.36;61.84;101972.59;4908394;29;20049;-82
2021/06/15 03:27:10;;;;;;;8.50;2.67;;;;;;;13.19;62.02;101949.50;4913649;29;20053;-82
2021/06/15 03:29:39;;;;;;;7.15;2.28;;;;;;;12.75;62.27;101902.69;4917378;29;20053;-81
2021/06/15 03:32:11;;;;;;;8.27;2.72;;;;;;;13.11;62.40;101971.53;4920151;29;20035;-81
2021/06/15 03:34:47;;;;;;;6.72;2.78;;;;;;;12.47;62.67;101865.03;4904558;29;20098;-80
2021/06/15 03:37:18;;;;;;;9.98;2.67;;;;;;;13.01;63.01;101971.84;4924643;29;20044;-81
2021/06/15 03:39:45;;;;;;;8.25;2.75;;;;;;;12.82;62.75;101946.16;4924939;29;20037;-80
2021/06/15 03:42:19;;;;;;;7.35;2.60;;;;;;;12.96;63.07;101985.06;4924567;29;20116;-81
2021/06/15 03:44:54;;;;;;;11.15;2.83;;;;;;;12.91;63.14;101985.19;4908313;29;20057;-81
2021/06/15 03:47:23;;;;;;;8.77;2.45;;;;;;;12.80;62.81;101961.03;4885617;29;20111;-80
2021/06/15 03:49:55;;;;;;;14.38;3.05;;;;;;;12.94;62.62;101982.50;4902221;29;20049;-82
2021/06/15 03:52:26;;;;;;;9.48;3.05;;;;;;;12.90;63.12;101985.25;4901311;29;20108;-80
2021/06/15 03:54:55;;;;;;;9.27;2.65;;;;;;;12.97;62.59;101989.41;4885252;29;20048;-82
2021/06/15 03:57:24;;;;;;;9.98;3.38;;;;;;;12.88;62.58;101974.81;4901290;29;20092;-83
2021/06/15 03:59:52;;;;;;;9.77;3.40;;;;;;;12.72;63.09;101966.50;4901336;29;20401;-83
2021/06/15 04:02:21;;;;;;;10.77;3.22;;;;;;;12.95;62.81;101986.84;4901855;29;20095;-82
2021/06/15 04:04:48;;;;;;;9.48;2.70;;;;;;;12.76;62.45;101954.19;4900779;29;20438;-81
2021/06/15 04:07:18;;;;;;;9.90;3.22;;;;;;;12.81;62.52;101992.44;4899927;29;20136;-80
2021/06/15 04:09:47;;;;;;;8.90;3.58;;;;;;;12.83;62.89;101995.03;4900097;29;20108;-80
2021/06/15 04:12:14;;;;;;;10.85;3.20;;;;;;;12.83;63.08;102005.53;4900407;29;20117;-80
2021/06/15 04:14:44;;;;;;;9.40;2.90;;;;;;;12.82;63.30;102009.03;4899971;29;20060;-79
2021/06/15 04:17:13;;;;;;;9.70;3.75;;;;;;;12.93;62.70;102024.47;4900015;29;20060;-80
2021/06/15 04:19:46;;;;;;;11.68;4.00;;;;;;;12.95;62.89;102027.91;4899896;29;20217;-79
2021/06/15 04:22:14;;;;;;;9.68;3.10;;;;;;;12.99;62.57;102026.94;4900006;29;20389;-80
2021/06/15 04:24:45;;;;;;;10.75;3.42;;;;;;;13.03;62.60;102028.56;4883841;29;20414;-80
2021/06/15 04:27:12;;;;;;;9.70;3.25;;;;;;;12.79;62.41;101989.03;4899497;29;20550;-80
2021/06/15 04:29:38;;;;;;;11.07;3.60;;;;;;;12.87;62.19;101999.28;4898119;29;20045;-79
2021/06/15 04:32:08;;;;;;;12.25;3.88;;;;;;;13.01;62.88;102025.16;4899397;29;20499;-80
2021/06/15 04:34:40;;;;;;;11.52;3.80;;;;;;;13.07;61.86;102016.22;4914897;29;20059;-80
2021/06/15 04:37:09;;;;;;;10.30;3.28;;;;;;;13.17;61.85;102028.22;4918744;29;20107;-79
2021/06/15 04:39:46;;;;;;;7.72;3.00;;;;;;;13.23;61.55;102022.78;4907330;29;20049;-79
2021/06/15 04:42:16;;;;;;;10.50;3.83;;;;;;;13.19;61.31;102017.66;4899267;29;20482;-80
2021/06/15 04:44:45;;;;;;;13.32;3.83;;;;;;;13.34;61.39;102032.97;4899689;29;20100;-80
2021/06/15 04:47:17;;;;;;;8.18;3.63;;;;;;;13.19;61.39;102007.19;4899507;29;20048;-80
2021/06/15 04:49:47;;;;;;;11.55;3.65;;;;;;;13.42;61.04;102024.91;4899907;29;20060;-79
2021/06/15 04:52:17;;;;;;;9.75;3.92;;;;;;;13.50;60.67;102043.03;4901832;29;20052;-79
2021/06/15 04:54:50;;;;;;;9.32;3.42;;;;;;;13.48;60.82;102040.47;4900221;29;20053;-79
2021/06/15 04:57:20;;;;;;;8.13;3.55;;;;;;;13.49;60.21;102008.09;4901335;29;20498;-80
2021/06/15 04:59:50;;;;;;;10.15;3.95;;;;;;;14.01;59.30;102038.91;4902113;29;20056;-80
2021/06/15 05:02:20;;;;;;;12.63;4.47;;;;;;;14.06;58.72;102031.72;4918855;29;20044;-82
2021/06/15 05:04:48;;;;;;;9.63;3.65;;;;;;;14.34;58.46;102049.25;4919810;29;20070;-82
2021/06/15 05:07:19;;;;;;;12.27;4.40;;;;;;;14.38;58.05;102051.72;4892692;29;20076;-83
2021/06/15 05:09:51;;;;;;;12.65;5.32;;;;;;;14.39;57.81;102050.81;4902094;29;20052;-82
2021/06/15 05:12:21;;;;;;;9.98;4.28;;;;;;;14.45;57.65;102041.00;4902931;29;20116;-82
2021/06/15 05:14:49;;;;;;;9.55;4.68;;;;;;;14.46;57.20;102035.69;4901504;29;20413;-82
2021/06/15 05:17:24;;;;;;;12.40;4.35;;;;;;;14.06;57.35;101972.22;4898921;29;20106;-83
2021/06/15 05:19:52;;;;;;;8.90;4.18;;;;;;;14.56;57.34;102047.63;4890206;29;20060;-82
2021/06/15 05:22:24;;;;;;;12.45;4.03;;;;;;;14.60;57.08;102050.16;4892692;29;20117;-82
2021/06/15 05:25:02;;;;;;;14.00;4.50;;;;;;;14.39;57.38;102042.06;4890451;29;20071;-82
2021/06/15 05:27:33;;;;;;;8.90;3.92;;;;;;;14.31;58.23;102046.72;4891625;29;20053;-84
2021/06/15 05:30:01;;;;;;;12.15;4.07;;;;;;;14.18;57.95;102023.47;4894647;29;20053;-83
2021/06/15 05:32:32;;;;;;;12.68;4.38;;;;;;;14.23;57.79;102029.44;4911043;29;20050;-82
2021/06/15 05:35:05;;;;;;;18.10;5.20;;;;;;;14.39;57.74;102055.19;4911960;29;20053;-83
2021/06/15 05:37:33;;;;;;;11.30;4.32;;;;;;;14.30;57.64;102053.75;4912627;29;20037;-82
2021/06/15 05:40:02;;;;;;;8.50;3.80;;;;;;;14.25;58.00;102042.53;4918615;29;20055;-82
2021/06/15 05:42:28;;;;;;;10.95;4.40;;;;;;;14.29;57.65;102041.50;4920477;29;20051;-83
2021/06/15 05:44:56;;;;;;;18.92;5.07;;;;;;;14.03;58.14;102034.47;4922634;29;20049;-82
2021/06/15 05:47:22;;;;;;;12.00;4.53;;;;;;;14.27;58.04;102072.25;4919871;29;20215;-83
2021/06/15 05:49:48;;;;;;;9.48;3.88;;;;;;;14.13;58.53;102049.00;4907377;29;20059;-82
2021/06/15 05:52:17;;;;;;;14.88;4.68;;;;;;;14.25;57.98;102043.38;4893390;29;20060;-83
2021/06/15 05:54:45;;;;;;;10.10;4.18;;;;;;;14.27;58.07;102048.59;4905487;29;20151;-82
2021/06/15 05:57:11;;;;;;;12.82;3.83;;;;;;;14.17;58.14;102044.53;4892831;29;20048;-79
2021/06/15 05:59:39;;;;;;;10.77;4.30;;;;;;;14.27;58.49;102045.09;4919073;29;20032;-79
2021/06/15 06:02:08;;;;;;;10.60;3.60;;;;;;;14.54;57.78;102077.50;4920609;29;20128;-79
2021/06/15 06:10:12;;;;;;;11.05;3.72;;;;;;;13.98;57.96;102018.00;4912141;29;20458;-79
2021/06/15 06:12:39;;;;;;;9.38;3.90;;;;;;;14.40;58.18;102085.81;4903018;29;20044;-80
2021/06/15 06:15:07;;;;;;;7.30;3.40;;;;;;;14.44;57.96;102076.94;4903936;29;20048;-82
2021/06/15 06:17:33;;;;;;;11.38;4.28;;;;;;;14.53;57.94;102076.63;4887727;29;20080;-81
2021/06/15 06:19:59;;;;;;;11.63;4.28;;;;;;;14.60;57.24;102039.63;4907028;29;20044;-80
2021/06/15 06:22:26;;;;;;;8.65;3.33;;;;;;;14.73;57.04;102072.50;4875105;29;20045;-82
2021/06/15 06:24:53;;;;;;;10.45;3.85;;;;;;;14.58;57.16;102029.19;4903926;29;20048;-80
2021/06/15 06:27:20;;;;;;;12.48;3.42;;;;;;;14.85;56.72;102081.75;4902671;29;20100;-82
2021/06/15 06:29:51;;;;;;;9.95;3.35;;;;;;;14.72;56.66;102048.00;4900375;29;20048;-82
2021/06/15 06:32:18;;;;;;;10.23;3.80;;;;;;;14.80;56.76;102055.63;4885414;29;20051;-81
2021/06/15 06:34:45;;;;;;;11.70;3.63;;;;;;;14.66;56.66;102019.31;4913809;29;20056;-82
2021/06/15 06:37:48;;;;;;;10.02;3.30;;;;;;;14.89;56.16;102041.31;4906734;29;20049;-82
2021/06/15 06:40:15;;;;;;;9.80;3.15;;;;;;;15.28;55.99;102079.41;4886743;29;20050;-79
2021/06/15 06:42:41;;;;;;;8.90;3.13;;;;;;;14.97;55.62;102009.50;4910551;29;20044;-79
2021/06/15 06:45:08;;;;;;;11.50;3.72;;;;;;;15.47;55.46;102082.22;4883292;29;20044;-80
2021/06/15 06:47:35;;;;;;;10.38;2.88;;;;;;;15.48;55.58;102070.81;4896441;29;20048;-80
2021/06/15 06:50:03;;;;;;;8.18;2.72;;;;;;;15.52;54.63;102075.03;4881740;29;20486;-81
2021/06/15 06:52:31;;;;;;;9.23;3.70;;;;;;;15.40;55.40;102049.16;4899205;29;20509;-80
2021/06/15 06:54:57;;;;;;;11.88;3.60;;;;;;;15.71;54.72;102067.31;4906587;29;20056;-80
2021/06/15 06:57:25;;;;;;;10.35;3.38;;;;;;;15.92;53.93;102059.53;4913065;29;20049;-79
2021/06/15 06:59:52;;;;;;;12.32;3.28;;;;;;;15.84;53.55;102062.44;4887526;29;20147;-79
2021/06/15 07:02:19;;;;;;;11.80;3.80;;;;;;;15.27;54.25;102025.06;4903133;29;20059;-80
2021/06/15 07:04:45;;;;;;;10.38;3.15;;;;;;;15.58;53.72;102039.72;4887223;29;20128;-79
2021/06/15 07:07:12;;;;;;;16.73;4.25;;;;;;;15.87;53.52;102064.97;4899290;29;20053;-80
2021/06/15 07:09:39;;;;;;;9.07;3.20;;;;;;;15.81;53.84;102071.28;4906012;29;20073;-80
2021/06/15 07:12:07;;;;;;;10.50;3.60;;;;;;;16.13;53.85;102065.72;4920680;29;20053;-79
2021/06/15 07:14:34;;;;;;;9.95;3.45;;;;;;;16.25;52.60;102038.88;4919564;29;20056;-80
2021/06/15 07:17:02;;;;;;;10.00;3.78;;;;;;;16.46;52.72;102060.00;4916349;29;20052;-81
2021/06/15 07:19:28;;;;;;;10.35;3.50;;;;;;;16.43;52.13;102058.34;4887273;29;20464;-80
2021/06/15 07:21:54;;;;;;;11.38;3.78;;;;;;;16.61;52.18;102059.38;4905075;29;20049;-81
2021/06/15 07:24:20;;;;;;;8.75;3.00;;;;;;;16.51;52.19;102047.50;4903575;29;20062;-82
2021/06/15 07:26:46;;;;;;;9.50;3.15;;;;;;;16.57;52.00;102039.31;4903168;29;20065;-82
2021/06/15 07:29:13;;;;;;;10.23;3.55;;;;;;;16.68;51.43;102052.06;4906051;29;20083;-80
2021/06/15 07:31:39;;;;;;;14.60;4.20;;;;;;;16.62;51.66;102029.47;4868481;29;20044;-80
2021/06/15 07:34:05;;;;;;;10.38;3.05;;;;;;;16.77;51.34;102051.69;4902206;29;20111;-80
2021/06/15 07:36:31;;;;;;;14.77;3.83;;;;;;;16.95;50.97;102051.81;4903309;29;20052;-76
2021/06/15 07:38:57;;;;;;;13.38;3.92;;;;;;;16.62;51.45;102053.19;4902239;29;20052;-77
2021/06/15 07:41:23;;;;;;;9.23;3.08;;;;;;;16.64;51.52;102053.13;4900108;29;20112;-78
2021/06/15 07:43:57;;;;;;;14.23;3.42;;;;;;;16.80;50.85;102037.50;4900491;29;20123;-78
2021/06/15 07:46:23;;;;;;;8.20;3.20;;;;;;;16.95;50.84;102060.63;4900465;29;20049;-77
2021/06/15 07:48:52;;;;;;;7.93;3.10;;;;;;;17.11;50.63;102047.59;4890888;29;20572;-79
2021/06/15 07:51:18;;;;;;;11.75;3.30;;;;;;;17.02;50.16;102048.00;4901935;29;20075;-79
2021/06/15 07:53:44;;;;;;;10.43;3.30;;;;;;;17.10;50.34;102051.16;4903186;29;20478;-78
2021/06/15 07:56:10;;;;;;;11.63;3.78;;;;;;;16.98;50.60;102027.09;4902220;29;20057;-77
2021/06/15 07:58:36;;;;;;;10.27;3.20;;;;;;;17.19;50.86;102043.78;4884010;29;20067;-78
2021/06/15 08:01:04;;;;;;;9.90;3.47;;;;;;;17.50;49.87;102037.09;4905696;29;20502;-75
2021/06/15 08:03:30;;;;;;;10.45;3.45;;;;;;;17.75;49.68;102044.75;4887223;29;20057;-75
2021/06/15 08:05:57;;;;;;;10.02;3.25;;;;;;;17.66;49.70;102032.78;4903873;29;20056;-77
2021/06/15 08:08:23;;;;;;;9.18;3.13;;;;;;;17.73;49.71;102034.22;4902239;29;20052;-76
2021/06/15 08:10:51;;;;;;;9.77;3.58;;;;;;;17.70;49.72;102034.38;4903174;29;20053;-76
2021/06/15 08:13:17;;;;;;;8.10;3.08;;;;;;;17.69;49.60;102037.09;4902519;29;20180;-73
2021/06/15 08:15:49;;;;;;;7.68;2.95;;;;;;;17.79;48.71;102032.25;4901366;29;20083;-77
2021/06/15 08:18:16;;;;;;;11.85;2.70;;;;;;;17.82;48.23;102040.00;4898219;29;20056;-77
2021/06/15 08:20:49;;;;;;;8.98;3.17;;;;;;;17.90;48.32;102029.94;4899011;29;20188;-77
2021/06/15 08:23:30;;;;;;;8.57;2.80;;;;;;;17.96;48.36;102024.38;4899182;29;20053;-76
2021/06/15 08:26:14;;;;;;;10.27;2.50;;;;;;;17.59;48.01;101975.94;4892383;29;195055;-77
2021/06/15 08:28:41;;;;;;;10.02;2.63;;;;;;;18.06;47.85;102033.56;4908422;29;20089;-76
2021/06/15 08:31:09;;;;;;;9.15;2.45;;;;;;;18.06;47.79;102019.50;4909316;29;20044;-78
2021/06/15 08:33:35;;;;;;;7.43;2.88;;;;;;;18.46;47.14;102022.81;4921753;29;20040;-75
2021/06/15 08:36:03;;;;;;;7.05;2.30;;;;;;;18.68;47.04;102021.75;4910063;29;20521;-78
2021/06/15 08:38:37;;;;;;;10.40;2.80;;;;;;;18.69;46.33;102016.34;4907997;29;20085;-76
2021/06/15 08:41:06;;;;;;;7.60;2.53;;;;;;;18.59;45.74;102001.91;4906058;29;20060;-77
2021/06/15 08:43:33;;;;;;;10.38;2.25;;;;;;;18.64;46.30;102022.81;4907057;29;20044;-76
2021/06/15 08:46:00;;;;;;;12.23;2.58;;;;;;;18.71;46.00;102013.63;4913010;29;20068;-76
2021/06/15 08:48:26;;;;;;;9.48;2.10;;;;;;;18.50;46.74;102023.53;4912707;29;20044;-76
2021/06/15 08:50:54;;;;;;;8.25;2.60;;;;;;;18.45;46.93;102026.41;4916717;29;20075;-77
2021/06/15 08:53:20;;;;;;;9.38;2.47;;;;;;;18.57;46.46;102017.00;4917510;29;20062;-78
2021/06/15 08:55:55;;;;;;;8.07;2.38;;;;;;;18.76;45.26;101990.47;4916497;29;20049;-76
2021/06/15 08:58:36;;;;;;;7.40;2.60;;;;;;;18.95;44.96;102011.53;4890811;29;20052;-75
2021/06/15 09:01:07;;;;;;;9.77;2.60;;;;;;;18.82;46.03;101994.56;4907084;29;20144;-77
2021/06/15 09:03:33;;;;;;;7.93;2.88;;;;;;;18.53;46.57;101974.00;4904206;29;20040;-77
2021/06/15 09:06:00;;;;;;;6.88;2.45;;;;;;;18.63;45.96;101968.25;4890888;29;20056;-76
2021/06/15 09:08:31;;;;;;;9.20;2.75;;;;;;;18.50;45.76;101891.31;4909196;29;20052;-77
2021/06/15 09:11:04;;;;;;;6.47;2.25;;;;;;;19.30;45.22;101992.06;4900057;29;20048;-77
2021/06/15 09:13:37;;;;;;;9.20;2.45;;;;;;;19.29;45.08;101982.41;4901455;29;20076;-76
2021/06/15 09:16:28;;;;;;;;;;;;;;;19.26;45.32;101996.69;4903472;29;20049;-76
2021/06/15 09:18:57;;;;;;;7.43;2.67;;;;;;;19.18;45.53;101959.19;4897244;29;19923;-77
2021/06/15 09:21:43;;;;;;;7.18;2.97;;;;;;;19.51;45.01;101990.88;4901543;29;20131;-77
2021/06/15 09:24:22;;;;;;;7.00;2.13;;;;;;;19.54;45.02;101989.84;4887144;29;20108;-75
2021/06/15 09:27:09;;;;;;;8.07;2.80;;;;;;;19.61;44.26;101987.72;4904790;29;20057;-76
2021/06/15 09:29:49;;;;;;;10.10;2.53;;;;;;;19.80;44.27;101984.91;4905219;29;20054;-77
2021/06/15 09:32:23;;;;;;;7.28;2.13;;;;;;;19.81;43.91;101973.31;4906388;29;20063;-78
2021/06/15 09:35:19;;;;;;;6.18;2.75;;;;;;;20.09;43.27;101971.78;4886709;29;20555;-82
2021/06/15 09:38:00;;;;;;;8.55;2.20;;;;;;;20.29;43.07;101966.16;4900111;29;20135;-76
2021/06/15 09:40:29;;;;;;;11.18;2.97;;;;;;;20.17;43.40;101971.34;4886911;29;20052;-77
2021/06/15 09:43:11;;;;;;;9.15;2.53;;;;;;;20.40;44.84;101967.34;4902280;29;20083;-77
2021/06/15 09:45:47;;;;;;;10.50;2.15;;;;;;;20.73;42.97;101959.16;4902396;29;20048;-77
2021/06/15 09:48:35;;;;;;;6.88;2.10;;;;;;;20.80;42.38;101946.38;4870289;29;20080;-78
2021/06/15 09:51:12;;;;;;;12.18;3.17;;;;;;;20.96;42.87;101927.69;4896195;29;20059;-80
2021/06/15 09:53:48;;;;;;;8.38;2.80;;;;;;;21.15;42.45;101937.97;4871550;29;20048;-79
2021/06/15 09:56:16;;;;;;;6.88;2.35;;;;;;;21.04;42.39;101924.53;4882787;29;20410;-78
2021/06/15 09:58:48;;;;;;;8.60;2.70;;;;;;;20.78;43.05;101925.22;4903609;29;20068;-77
2021/06/15 10:01:30;;;;;;;6.50;2.22;;;;;;;21.02;43.19;101937.94;4908993;29;20049;-79
2021/06/15 10:04:23;;;;;;;8.93;2.60;;;;;;;21.00;42.81;101934.50;4899066;29;20044;-78
2021/06/15 10:06:52;;;;;;;10.02;2.47;;;;;;;20.71;43.41;101939.78;4890218;29;20143;-77
2021/06/15 10:09:29;;;;;;;7.25;2.10;;;;;;;20.74;43.09;101934.34;4902231;29;20052;-76
2021/06/15 10:11:59;;;;;;;17.13;3.42;;;;;;;21.18;42.88;101936.94;4901522;29;20048;-76
2021/06/15 10:14:28;;;;;;;13.60;3.22;;;;;;;21.37;41.87;101937.50;4907797;29;20060;-76
2021/06/15 10:16:56;;;;;;;13.00;3.67;;;;;;;21.58;41.74;101927.28;4908176;29;20129;-76
2021/06/15 10:19:25;;;;;;;11.57;2.58;;;;;;;22.03;40.27;101929.66;4911187;29;20569;-77
2021/06/15 10:21:53;;;;;;;9.13;2.60;;;;;;;21.68;40.49;101900.97;4911218;29;20074;-77
2021/06/15 10:24:25;;;;;;;6.47;2.35;;;;;;;21.53;41.37;101921.41;4912140;29;20052;-77
2021/06/15 10:26:54;;;;;;;6.57;2.20;;;;;;;21.62;40.98;101919.09;4910386;29;20060;-77
2021/06/15 10:29:22;;;;;;;6.80;2.40;;;;;;;21.75;41.04;101923.53;4912739;29;20139;-76
2021/06/15 10:31:52;;;;;;;7.10;2.67;;;;;;;21.79;41.06;101916.22;4912113;29;20084;-77
2021/06/15 10:34:45;;;;;;;5.10;2.20;;;;;;;21.84;41.35;101915.91;4906755;29;20118;-77
2021/06/15 10:37:31;;;;;;;5.97;2.37;;;;;;;21.86;41.35;101911.31;4908539;29;20052;-78
2021/06/15 10:40:00;;;;;;;6.00;2.42;;;;;;;21.72;41.23;101870.56;4907287;29;20123;-77
2021/06/15 10:42:27;;;;;;;6.25;2.30;;;;;;;21.98;41.61;101910.50;4876069;29;20077;-76
2021/06/15 10:45:13;;;;;;;9.50;3.03;;;;;;;21.84;41.72;101911.44;4904699;29;20097;-77
2021/06/15 10:47:41;;;;;;;7.10;2.78;;;;;;;21.88;41.91;101910.25;4877824;29;20053;-77
2021/06/15 10:50:11;;;;;;;6.47;2.35;;;;;;;21.61;42.65;101910.31;4897268;29;20048;-78
2021/06/15 10:52:56;;;;;;;8.05;2.60;;;;;;;21.78;42.40;101906.53;4897140;29;20108;-79
2021/06/15 10:55:50;;;;;;;7.80;2.47;;;;;;;22.16;42.75;101895.09;4887726;29;20490;-78
2021/06/15 10:58:36;;;;;;;6.90;2.42;;;;;;;22.79;41.98;101897.00;4898177;29;20065;-78
2021/06/15 11:01:22;;;;;;;18.00;3.95;;;;;;;23.00;41.36;101892.81;4892977;29;20052;-77
2021/06/15 11:04:02;;;;;;;9.80;3.33;;;;;;;23.22;40.37;101895.75;4897585;29;20057;-78
2021/06/15 11:06:28;;;;;;;6.03;2.17;;;;;;;23.18;39.94;101901.31;4912315;29;20052;-79
2021/06/15 11:09:16;;;;;;;8.80;2.58;;;;;;;23.24;40.09;101900.03;4915474;29;20072;-76
2021/06/15 11:12:04;;;;;;;5.93;2.30;;;;;;;23.00;40.72;101899.97;4906732;29;20104;-75
2021/06/15 11:14:31;;;;;;;5.65;2.63;;;;;;;23.15;40.62;101892.69;4906110;29;20049;-78
2021/06/15 11:17:01;;;;;;;9.02;2.33;;;;;;;23.01;40.10;101840.44;4907073;29;20059;-78
2021/06/15 11:19:33;;;;;;;6.03;2.80;;;;;;;23.44;39.08;101889.72;4907775;29;20052;-76
2021/06/15 11:22:22;;;;;;;7.63;2.47;;;;;;;23.49;38.71;101883.06;4887207;29;20053;-76
2021/06/15 11:25:01;;;;;;;4.25;2.05;;;;;;;23.40;37.86;101878.44;4884313;29;20056;-75
2021/06/15 11:27:27;;;;;;;6.10;2.50;;;;;;;23.42;38.52;101889.81;4902125;29;20056;-76
2021/06/15 11:29:55;;;;;;;9.15;2.55;;;;;;;23.03;39.18;101878.44;4890043;29;20056;-76
2021/06/15 11:32:27;;;;;;;7.97;2.30;;;;;;;23.16;39.07;101873.06;4900126;29;20057;-77
2021/06/15 11:34:56;;;;;;;7.50;2.53;;;;;;;23.36;39.42;101876.13;4898346;29;20088;-75
2021/06/15 11:37:22;;;;;;;7.35;2.50;;;;;;;23.73;38.13;101879.53;4901629;29;20096;-77
2021/06/15 11:39:48;;;;;;;5.68;2.25;;;;;;;23.38;38.45;101869.69;4905045;29;20081;-77
2021/06/15 11:42:27;;;;;;;4.85;2.55;;;;;;;23.39;37.99;101867.88;4903426;29;20049;-77
2021/06/15 11:45:00;;;;;;;6.03;2.05;;;;;;;23.75;37.40;101852.75;4905199;29;20112;-77